createdAt,value
2023-03-12T00:00:09.130Z,100634.90
2023-03-12T00:02:36.111Z,100633.00
2023-03-12T00:05:03.804Z,100624.27
2023-03-12T00:07:30.699Z,100627.38
2023-03-12T00:09:57.669Z,100626.27
2023-03-12T00:12:24.807Z,100626.13
2023-03-12T00:14:51.794Z,100634.58
2023-03-12T00:17:18.813Z,100636.02
2023-03-12T00:19:45.736Z,100637.45
2023-03-12T00:22:13.715Z,100638.23
2023-03-12T00:24:40.646Z,100636.55
2023-03-12T00:27:08.314Z,100629.14
2023-03-12T00:29:36.238Z,100630.50
2023-03-12T00:32:03.212Z,100619.61
2023-03-12T00:34:30.137Z,100616.34
2023-03-12T00:36:57.094Z,100631.30
2023-03-12T00:39:24.083Z,100638.08
2023-03-12T00:41:51.079Z,100640.09
2023-03-12T00:44:18.037Z,100640.83
2023-03-12T00:46:45.075Z,100633.64
2023-03-12T00:49:21.367Z,100629.30
2023-03-12T00:51:52.368Z,100627.40
2023-03-12T00:54:19.334Z,100628.98
2023-03-12T00:56:47.004Z,100617.92
2023-03-12T00:59:15.410Z,100596.89
2023-03-12T01:01:43.219Z,100601.38
2023-03-12T01:04:10.415Z,100618.09
2023-03-12T01:06:37.891Z,100627.02
2023-03-12T01:09:07.177Z,100636.64
2023-03-12T01:11:34.779Z,100645.20
2023-03-12T01:14:03.625Z,100634.38
2023-03-12T01:16:31.205Z,100622.36
2023-03-12T01:18:59.511Z,100606.75
2023-03-12T01:21:27.410Z,100604.73
2023-03-12T01:23:55.117Z,100613.64
2023-03-12T01:26:22.493Z,100620.41
2023-03-12T01:29:06.632Z,100618.71
2023-03-12T01:31:36.719Z,100617.77
2023-03-12T01:34:03.742Z,100623.91
2023-03-12T01:36:31.054Z,100628.81
2023-03-12T01:39:02.848Z,100629.23
2023-03-12T01:41:43.990Z,100632.84
2023-03-12T01:44:38.516Z,100633.67
2023-03-12T01:47:06.185Z,100628.13
2023-03-12T01:49:34.964Z,100629.55
2023-03-12T01:52:06.944Z,100624.73
2023-03-12T01:55:01.815Z,100626.59
2023-03-12T01:57:36.124Z,100617.87
2023-03-12T02:00:12.076Z,100613.55
2023-03-12T02:02:44.873Z,100608.36
2023-03-12T02:05:30.385Z,100607.40
2023-03-12T02:07:57.837Z,100602.86
2023-03-12T02:10:25.488Z,100597.52
2023-03-12T02:12:53.499Z,100593.33
2023-03-12T02:15:21.078Z,100589.84
2023-03-12T02:17:47.982Z,100586.50
2023-03-12T02:20:35.391Z,100583.48
2023-03-12T02:23:31.653Z,100577.77
2023-03-12T02:26:01.591Z,100577.72
2023-03-12T02:28:30.076Z,100574.23
2023-03-12T02:31:03.861Z,100575.29
2023-03-12T02:33:31.275Z,100578.05
2023-03-12T02:35:58.281Z,100583.33
2023-03-12T02:38:45.401Z,100578.89
2023-03-12T02:41:15.116Z,100576.93
2023-03-12T02:43:49.552Z,100561.49
2023-03-12T02:46:17.017Z,100556.20
2023-03-12T02:48:44.188Z,100559.75
2023-03-12T02:51:11.155Z,100569.91
2023-03-12T02:53:39.449Z,100580.05
2023-03-12T02:56:07.933Z,100585.23
2023-03-12T02:58:35.176Z,100584.88
2023-03-12T03:01:02.325Z,100568.79
2023-03-12T03:03:29.886Z,100577.67
2023-03-12T03:05:57.304Z,100579.90
2023-03-12T03:08:24.754Z,100579.36
2023-03-12T03:10:53.163Z,100583.60
2023-03-12T03:13:20.279Z,100592.96
2023-03-12T03:15:47.407Z,100594.77
2023-03-12T03:18:14.486Z,100590.64
2023-03-12T03:20:41.466Z,100585.60
2023-03-12T03:23:08.836Z,100586.09
2023-03-12T03:25:37.068Z,100590.73
2023-03-12T03:28:04.175Z,100598.93
2023-03-12T03:30:31.248Z,100611.63
2023-03-12T03:32:58.151Z,100621.05
2023-03-12T03:35:25.422Z,100622.59
2023-03-12T03:37:52.740Z,100614.96
2023-03-12T03:40:19.920Z,100615.87
2023-03-12T03:42:46.846Z,100618.73
2023-03-12T03:45:13.890Z,100620.99
2023-03-12T03:47:41.812Z,100616.18
2023-03-12T03:50:09.826Z,100613.59
2023-03-12T03:52:36.821Z,100609.52
2023-03-12T03:55:04.274Z,100610.73
2023-03-12T03:57:32.195Z,100617.66
2023-03-12T04:00:03.475Z,100624.95
2023-03-12T04:02:40.740Z,100621.56
2023-03-12T04:05:08.954Z,100619.77
2023-03-12T04:07:36.140Z,100621.89
2023-03-12T04:10:04.912Z,100621.67
2023-03-12T04:12:31.972Z,100634.52
2023-03-12T04:14:58.979Z,100629.17
2023-03-12T04:17:26.174Z,100636.79
2023-03-12T04:19:56.764Z,100632.79
2023-03-12T04:22:24.153Z,100637.90
2023-03-12T04:24:51.184Z,100636.76
2023-03-12T04:27:18.299Z,100644.15
2023-03-12T04:29:46.990Z,100650.30
2023-03-12T04:32:14.137Z,100653.77
2023-03-12T04:34:41.611Z,100657.29
2023-03-12T04:37:11.464Z,100656.91
2023-03-12T04:39:38.800Z,100656.38
2023-03-12T04:42:07.041Z,100663.30
2023-03-12T04:44:35.625Z,100660.08
2023-03-12T04:47:04.058Z,100663.35
2023-03-12T04:49:31.641Z,100664.52
2023-03-12T04:51:58.869Z,100667.20
2023-03-12T04:54:26.441Z,100669.39
2023-03-12T04:56:54.022Z,100678.90
2023-03-12T04:59:24.443Z,100684.61
2023-03-12T05:01:52.118Z,100675.04
2023-03-12T05:04:23.270Z,100678.42
2023-03-12T05:06:50.576Z,100684.51
2023-03-12T05:09:18.152Z,100687.30
2023-03-12T05:11:45.349Z,100683.38
2023-03-12T05:14:13.849Z,100677.73
2023-03-12T05:16:41.919Z,100676.88
2023-03-12T05:19:09.214Z,100669.70
2023-03-12T05:21:36.909Z,100668.79
2023-03-12T05:24:04.496Z,100671.55
2023-03-12T05:26:33.812Z,100684.73
2023-03-12T05:29:13.620Z,100693.55
2023-03-12T05:31:41.117Z,100700.42
2023-03-12T05:34:11.364Z,100709.73
2023-03-12T05:36:39.693Z,100713.44
2023-03-12T05:39:07.848Z,100714.40
2023-03-12T05:41:35.493Z,100711.10
2023-03-12T05:44:14.352Z,100711.06
2023-03-12T05:46:43.282Z,100705.63
2023-03-12T05:49:11.011Z,100712.34
2023-03-12T05:51:38.134Z,100717.09
2023-03-12T05:54:05.932Z,100717.57
2023-03-12T05:56:33.165Z,100716.40
2023-03-12T05:59:00.642Z,100712.45
2023-03-12T06:01:30.835Z,100718.95
2023-03-12T06:04:00.537Z,100719.21
2023-03-12T06:06:30.477Z,100717.52
2023-03-12T06:08:57.997Z,100715.02
2023-03-12T06:11:25.888Z,100712.48
2023-03-12T06:13:52.952Z,100716.23
2023-03-12T06:16:24.393Z,100712.32
2023-03-12T06:18:57.481Z,100704.98
2023-03-12T06:21:27.847Z,100701.38
2023-03-12T06:23:56.298Z,100709.40
2023-03-12T06:26:34.511Z,100718.98
2023-03-12T06:29:01.762Z,100717.19
2023-03-12T06:31:29.318Z,100714.42
2023-03-12T06:33:56.561Z,100721.32
2023-03-12T06:36:24.238Z,100717.77
2023-03-12T06:38:51.451Z,100708.30
2023-03-12T06:41:20.886Z,100694.45
2023-03-12T06:43:48.357Z,100695.98
2023-03-12T06:46:18.398Z,100684.46
2023-03-12T06:48:46.764Z,100679.76
2023-03-12T06:51:16.347Z,100707.32
2023-03-12T06:53:45.048Z,100716.36
2023-03-12T06:56:12.803Z,100720.27
2023-03-12T06:58:40.436Z,100719.80
2023-03-12T07:01:08.099Z,100724.70
2023-03-12T07:03:35.266Z,100723.77
2023-03-12T07:06:02.640Z,100722.16
2023-03-12T07:08:33.056Z,100731.73
2023-03-12T07:11:02.172Z,100735.45
2023-03-12T07:13:30.575Z,100752.36
2023-03-12T07:15:58.099Z,100751.79
2023-03-12T07:18:25.503Z,100750.04
2023-03-12T07:20:52.998Z,100755.80
2023-03-12T07:23:20.888Z,100762.20
2023-03-12T07:25:49.311Z,100768.92
2023-03-12T07:28:17.094Z,100778.91
2023-03-12T07:30:50.764Z,100776.33
2023-03-12T07:33:20.942Z,100773.27
2023-03-12T07:35:51.520Z,100774.48
2023-03-12T07:38:19.216Z,100770.36
2023-03-12T07:40:51.540Z,100770.31
2023-03-12T07:43:20.490Z,100775.07
2023-03-12T07:45:54.950Z,100777.14
2023-03-12T07:48:21.889Z,100778.14
2023-03-12T07:50:49.182Z,100774.44
2023-03-12T07:53:16.331Z,100765.02
2023-03-12T07:55:46.144Z,100756.49
2023-03-12T07:58:14.102Z,100771.30
2023-03-12T08:00:41.484Z,100770.45
2023-03-12T08:03:09.067Z,100770.62
2023-03-12T08:05:36.662Z,100769.55
2023-03-12T08:08:03.665Z,100771.35
2023-03-12T08:10:30.797Z,100776.85
2023-03-12T08:12:58.185Z,100774.11
2023-03-12T08:15:26.040Z,100778.22
2023-03-12T08:17:53.323Z,100782.66
2023-03-12T08:20:21.204Z,100791.01
2023-03-12T08:22:48.620Z,100790.75
2023-03-12T08:25:21.197Z,100793.97
2023-03-12T08:27:53.036Z,100794.30
2023-03-12T08:30:21.058Z,100787.91
2023-03-12T08:32:49.047Z,100792.20
2023-03-12T08:35:17.131Z,100799.66
2023-03-12T08:37:44.797Z,100797.13
2023-03-12T08:40:13.475Z,100798.55
2023-03-12T08:42:45.152Z,100796.48
2023-03-12T08:45:14.410Z,100804.95
2023-03-12T08:47:43.687Z,100807.48
2023-03-12T08:50:13.943Z,100807.27
2023-03-12T08:52:40.960Z,100804.89
2023-03-12T08:55:08.846Z,100806.32
2023-03-12T08:57:35.888Z,100817.80
2023-03-12T09:00:05.758Z,100822.96
2023-03-12T09:02:33.158Z,100826.73
2023-03-12T09:05:00.145Z,100829.90
2023-03-12T09:07:27.178Z,100824.77
2023-03-12T09:09:58.919Z,100826.73
2023-03-12T09:12:26.084Z,100823.44
2023-03-12T09:15:09.015Z,100821.95
2023-03-12T09:17:38.177Z,100822.75
2023-03-12T09:20:08.729Z,100819.79
2023-03-12T09:22:37.537Z,100821.55
2023-03-12T09:25:05.710Z,100821.91
2023-03-12T09:27:54.274Z,100820.65
2023-03-12T09:30:26.088Z,100819.86
2023-03-12T09:32:53.936Z,100819.22
2023-03-12T09:35:21.043Z,100822.39
2023-03-12T09:37:50.871Z,100821.96
2023-03-12T09:40:23.025Z,100810.91
2023-03-12T09:42:58.401Z,100808.38
2023-03-12T09:45:31.673Z,100809.07
2023-03-12T09:48:04.676Z,100818.27
2023-03-12T09:50:35.486Z,100816.15
2023-03-12T09:53:50.447Z,100812.86
2023-03-12T09:57:09.873Z,100820.27
2023-03-12T09:59:37.515Z,100830.10
2023-03-12T10:02:25.349Z,100825.49
2023-03-12T10:05:33.041Z,100834.02
2023-03-12T10:08:24.650Z,100832.81
2023-03-12T10:11:05.513Z,100825.47
2023-03-12T10:13:44.040Z,100821.09
2023-03-12T10:16:20.107Z,100814.48
2023-03-12T10:19:04.825Z,100820.02
2023-03-12T10:21:50.382Z,100819.34
2023-03-12T10:24:44.676Z,100819.55
2023-03-12T10:27:17.239Z,100815.63
2023-03-12T10:29:48.027Z,100814.98
2023-03-12T10:32:27.717Z,100816.52
2023-03-12T10:35:13.327Z,100822.06
2023-03-12T10:37:46.277Z,100815.39
2023-03-12T10:40:19.975Z,100815.81
2023-03-12T10:42:47.084Z,100818.55
2023-03-12T10:45:46.562Z,100816.01
2023-03-12T10:48:25.003Z,100804.79
2023-03-12T10:51:07.587Z,100808.12
2023-03-12T10:53:45.128Z,100800.36
2023-03-12T10:56:17.273Z,100804.64
2023-03-12T10:58:53.339Z,100802.05
2023-03-12T11:01:26.409Z,100799.52
2023-03-12T11:04:08.572Z,100797.09
2023-03-12T11:06:35.574Z,100798.41
2023-03-12T11:09:17.157Z,100797.98
2023-03-12T11:11:48.196Z,100798.36
2023-03-12T11:14:27.656Z,100791.80
2023-03-12T11:16:56.942Z,100794.55
2023-03-12T11:19:34.624Z,100793.23
2023-03-12T11:22:04.985Z,100799.26
2023-03-12T11:24:32.351Z,100803.80
2023-03-12T11:27:23.358Z,100808.63
2023-03-12T11:29:51.064Z,100803.60
2023-03-12T11:32:18.002Z,100810.64
2023-03-12T11:34:49.812Z,100811.16
2023-03-12T11:37:43.055Z,100816.98
2023-03-12T11:40:51.222Z,100812.65
2023-03-12T11:43:56.677Z,100812.61
2023-03-12T11:46:44.225Z,100822.35
2023-03-12T11:49:43.619Z,100821.46
2023-03-12T11:52:13.624Z,100813.10
2023-03-12T11:55:01.797Z,100809.66
2023-03-12T11:57:37.555Z,100791.14
2023-03-12T12:00:18.967Z,100790.55
2023-03-12T12:03:02.922Z,100786.85
2023-03-12T12:05:29.903Z,100788.58
2023-03-12T12:08:32.698Z,100785.46
2023-03-12T12:11:19.204Z,100778.54
2023-03-12T12:14:36.344Z,100778.80
2023-03-12T12:17:27.994Z,100783.89
2023-03-12T12:20:12.669Z,100783.46
2023-03-12T12:23:07.069Z,100784.14
2023-03-12T12:25:57.875Z,100782.24
2023-03-12T12:28:37.164Z,100790.56
2023-03-12T12:31:23.193Z,100779.56
2023-03-12T12:33:56.511Z,100779.87
2023-03-12T12:36:29.128Z,100774.80
2023-03-12T12:39:06.397Z,100767.65
2023-03-12T12:41:38.239Z,100774.94
2023-03-12T12:44:21.539Z,100768.97
2023-03-12T12:46:53.889Z,100766.54
2023-03-12T12:49:27.009Z,100768.83
2023-03-12T12:52:01.484Z,100778.08
2023-03-12T12:54:35.212Z,100775.55
2023-03-12T12:57:20.473Z,100770.73
2023-03-12T13:00:12.500Z,100760.38
2023-03-12T13:02:44.400Z,100753.91
2023-03-12T13:05:26.283Z,100750.42
2023-03-12T13:07:53.752Z,100751.16
2023-03-12T13:10:48.728Z,100752.65
2023-03-12T13:13:26.870Z,100752.66
2023-03-12T13:16:34.139Z,100751.38
2023-03-12T13:19:22.727Z,100742.88
2023-03-12T13:22:10.595Z,100742.25
2023-03-12T13:25:12.912Z,100742.30
2023-03-12T13:27:42.927Z,100750.64
2023-03-12T13:30:34.934Z,100744.84
2023-03-12T13:33:01.977Z,100741.89
2023-03-12T13:36:06.234Z,100736.34
2023-03-12T13:38:59.092Z,100737.54
2023-03-12T13:41:41.012Z,100743.58
2023-03-12T13:44:34.252Z,100739.27
2023-03-12T13:47:04.079Z,100740.65
2023-03-12T13:50:00.218Z,100734.52
2023-03-12T13:52:47.213Z,100732.84
2023-03-12T13:55:14.087Z,100735.95
2023-03-12T13:57:47.129Z,100741.46
2023-03-12T14:00:30.956Z,100738.93
2023-03-12T14:03:03.142Z,100748.33
2023-03-12T14:05:34.363Z,100751.83
2023-03-12T14:08:33.587Z,100758.22
2023-03-12T14:11:20.130Z,100763.80
2023-03-12T14:13:59.136Z,100772.73
2023-03-12T14:16:41.922Z,100773.41
2023-03-12T14:19:18.688Z,100778.91
2023-03-12T14:21:48.912Z,100785.42
2023-03-12T14:24:38.771Z,100786.53
2023-03-12T14:27:12.748Z,100791.67
2023-03-12T14:29:44.611Z,100792.40
2023-03-12T14:32:21.020Z,100788.55
2023-03-12T14:34:54.667Z,100797.54
2023-03-12T14:37:21.510Z,100797.75
2023-03-12T14:39:55.902Z,100787.65
2023-03-12T14:42:32.401Z,100786.80
2023-03-12T14:45:04.526Z,100780.77
2023-03-12T14:47:42.728Z,100776.33
2023-03-12T14:50:26.828Z,100773.14
2023-03-12T14:52:54.995Z,100770.92
2023-03-12T14:55:24.845Z,100775.27
2023-03-12T14:58:06.549Z,100778.81
2023-03-12T15:00:34.038Z,100789.61
2023-03-12T15:03:05.583Z,100788.13
2023-03-12T15:05:34.736Z,100789.07
2023-03-12T15:08:03.809Z,100783.31
2023-03-12T15:10:32.422Z,100783.77
2023-03-12T15:13:01.536Z,100793.52
2023-03-12T15:15:28.443Z,100811.25
2023-03-12T15:17:56.001Z,100824.79
2023-03-12T15:20:24.863Z,100836.31
2023-03-12T15:22:52.971Z,100836.48
2023-03-12T15:25:32.146Z,100831.48
2023-03-12T15:28:23.981Z,100822.73
2023-03-12T15:31:15.673Z,100813.98
2023-03-12T15:33:45.760Z,100813.41
2023-03-12T15:36:17.334Z,100811.93
2023-03-12T15:38:48.918Z,100818.60
2023-03-12T15:41:20.754Z,100820.19
2023-03-12T15:43:53.927Z,100826.54
2023-03-12T15:46:21.335Z,100825.47
2023-03-12T15:48:54.475Z,100833.66
2023-03-12T15:51:30.420Z,100838.27
2023-03-12T15:54:13.526Z,100846.48
2023-03-12T15:56:40.627Z,100846.69
2023-03-12T15:59:16.846Z,100841.39
2023-03-12T16:01:46.900Z,100842.08
2023-03-12T16:04:13.899Z,100848.11
2023-03-12T16:06:43.084Z,100850.71
2023-03-12T16:09:16.478Z,100854.15
2023-03-12T16:11:44.056Z,100860.97
2023-03-12T16:14:19.222Z,100865.90
2023-03-12T16:16:47.397Z,100869.13
2023-03-12T16:19:17.169Z,100868.58
2023-03-12T16:21:44.841Z,100877.58
2023-03-12T16:24:12.196Z,100878.42
2023-03-12T16:26:49.831Z,100875.19
2023-03-12T16:29:18.454Z,100869.83
2023-03-12T16:31:50.225Z,100866.70
2023-03-12T16:34:17.149Z,100869.60
2023-03-12T16:36:44.014Z,100872.09
2023-03-12T16:39:10.931Z,100876.06
2023-03-12T16:41:38.564Z,100879.97
2023-03-12T16:44:08.744Z,100881.88
2023-03-12T16:46:36.211Z,100892.45
2023-03-12T16:49:04.266Z,100890.02
2023-03-12T16:51:31.649Z,100898.73
2023-03-12T16:54:09.630Z,100906.18
2023-03-12T16:56:41.361Z,100915.95
2023-03-12T16:59:20.508Z,100914.15
2023-03-12T17:01:47.542Z,100919.95
2023-03-12T17:04:15.016Z,100917.98
2023-03-12T17:06:42.172Z,100914.48
2023-03-12T17:09:09.100Z,100918.69
2023-03-12T17:11:38.187Z,100918.54
2023-03-12T17:14:22.457Z,100918.48
2023-03-12T17:16:50.805Z,100922.13
2023-03-12T17:19:18.100Z,100928.83
2023-03-12T17:21:46.009Z,100933.17
2023-03-12T17:24:15.228Z,100938.61
2023-03-12T17:26:46.258Z,100944.90
2023-03-12T17:29:14.469Z,100950.77
2023-03-12T17:31:42.347Z,100950.56
2023-03-12T17:34:09.793Z,100953.00
2023-03-12T17:36:38.240Z,100952.79
2023-03-12T17:39:05.786Z,100959.70
2023-03-12T17:41:33.670Z,100960.94
2023-03-12T17:44:02.293Z,100963.69
2023-03-12T17:46:30.617Z,100976.49
2023-03-12T17:48:57.678Z,100985.23
2023-03-12T17:51:24.693Z,100990.61
2023-03-12T17:53:51.684Z,100998.91
2023-03-12T17:56:20.415Z,101004.79
2023-03-12T17:58:47.824Z,101014.92
2023-03-12T18:01:15.784Z,101020.94
2023-03-12T18:03:44.185Z,101029.45
2023-03-12T18:06:11.881Z,101036.35
2023-03-12T18:08:38.897Z,101043.23
2023-03-12T18:11:05.858Z,101047.33
2023-03-12T18:13:33.010Z,101052.19
2023-03-12T18:16:00.091Z,101062.08
2023-03-12T18:18:27.681Z,101063.16
2023-03-12T18:20:54.704Z,101063.67
2023-03-12T18:23:23.769Z,101063.30
2023-03-12T18:25:50.916Z,101066.95
2023-03-12T18:28:18.121Z,101071.14
2023-03-12T18:30:48.591Z,101078.45
2023-03-12T18:33:15.837Z,101087.66
2023-03-12T18:35:46.224Z,101102.62
2023-03-12T18:38:13.162Z,101112.41
2023-03-12T18:40:40.240Z,101117.33
2023-03-12T18:43:07.160Z,101122.62
2023-03-12T18:45:34.361Z,101123.25
2023-03-12T18:48:01.383Z,101125.84
2023-03-12T18:50:28.330Z,101140.75
2023-03-12T18:52:55.942Z,101154.89
2023-03-12T18:55:23.118Z,101164.51
2023-03-12T18:57:50.482Z,101182.61
2023-03-12T19:00:19.784Z,101200.86
2023-03-12T19:02:48.026Z,101214.29
2023-03-12T19:05:15.535Z,101217.15
2023-03-12T19:07:42.906Z,101215.14
2023-03-12T19:10:10.924Z,101216.48
2023-03-12T19:12:50.974Z,101216.98
2023-03-12T19:15:19.513Z,101221.02
2023-03-12T19:17:46.475Z,101226.36
2023-03-12T19:20:13.478Z,101229.21
2023-03-12T19:22:40.524Z,101230.16
2023-03-12T19:25:07.984Z,101242.67
2023-03-12T19:27:34.988Z,101242.63
2023-03-12T19:30:01.977Z,101245.05
2023-03-12T19:32:40.568Z,101248.16
2023-03-12T19:35:11.456Z,101249.27
2023-03-12T19:37:38.536Z,101251.02
2023-03-12T19:40:06.308Z,101258.96
2023-03-12T19:42:34.176Z,101258.85
2023-03-12T19:45:01.129Z,101265.64
2023-03-12T19:47:28.460Z,101267.83
2023-03-12T19:49:55.428Z,101268.50
2023-03-12T19:52:22.453Z,101267.94
2023-03-12T19:55:03.412Z,101270.88
2023-03-12T19:57:31.704Z,101270.48
2023-03-12T19:59:58.716Z,101277.07
2023-03-12T20:02:26.361Z,101276.05
2023-03-12T20:04:53.530Z,101282.58
2023-03-12T20:07:20.861Z,101286.70
2023-03-12T20:09:47.888Z,101288.47
2023-03-12T20:12:14.864Z,101293.02
2023-03-12T20:14:42.944Z,101292.71
2023-03-12T20:17:12.290Z,101299.91
2023-03-12T20:19:39.522Z,101307.10
2023-03-12T20:22:07.491Z,101312.39
2023-03-12T20:24:35.253Z,101313.50
2023-03-12T20:27:02.210Z,101312.73
2023-03-12T20:29:29.154Z,101318.48
2023-03-12T20:31:56.084Z,101316.06
2023-03-12T20:34:23.459Z,101317.65
2023-03-12T20:36:50.435Z,101317.75
2023-03-12T20:39:17.364Z,101320.17
2023-03-12T20:41:44.274Z,101323.14
2023-03-12T20:44:11.311Z,101327.79
2023-03-12T20:46:38.351Z,101333.34
2023-03-12T20:49:05.230Z,101337.69
2023-03-12T20:51:32.159Z,101338.86
2023-03-12T20:53:59.171Z,101337.69
2023-03-12T20:56:26.767Z,101337.05
2023-03-12T20:58:54.033Z,101337.10
2023-03-12T21:01:21.055Z,101338.95
2023-03-12T21:03:47.995Z,101338.11
2023-03-12T21:06:14.940Z,101337.99
2023-03-12T21:08:42.609Z,101341.12
2023-03-12T21:11:10.516Z,101344.99
2023-03-12T21:13:37.574Z,101348.90
2023-03-12T21:16:08.928Z,101351.16
2023-03-12T21:18:36.034Z,101353.73
2023-03-12T21:21:05.299Z,101358.33
2023-03-12T21:23:33.347Z,101358.46
2023-03-12T21:26:02.988Z,101362.11
2023-03-12T21:28:30.038Z,101369.67
2023-03-12T21:31:04.571Z,101372.41
2023-03-12T21:33:31.581Z,101371.41
2023-03-12T21:35:58.467Z,101370.34
2023-03-12T21:38:26.528Z,101376.91
2023-03-12T21:40:54.432Z,101375.85
2023-03-12T21:43:22.011Z,101374.69
2023-03-12T21:45:48.986Z,101374.27
2023-03-12T21:48:18.115Z,101373.00
2023-03-12T21:50:51.638Z,101373.97
2023-03-12T21:54:01.564Z,101376.56
2023-03-12T21:56:17.581Z,101380.52
2023-03-12T21:58:50.122Z,101386.87
2023-03-12T22:01:23.338Z,101382.36
2023-03-12T22:03:52.444Z,101384.15
2023-03-12T22:09:26.286Z,101399.65
2023-03-12T22:11:57.093Z,101401.23
2023-03-12T22:14:34.864Z,101402.76
2023-03-12T22:17:05.960Z,101405.92
2023-03-12T22:19:41.927Z,101409.16
2023-03-12T22:22:13.829Z,101410.58
2023-03-12T22:24:49.525Z,101407.83
2023-03-12T22:27:20.082Z,101410.70
2023-03-12T22:33:02.564Z,101417.50
2023-03-12T22:35:35.264Z,101420.90
2023-03-12T22:38:03.043Z,101419.04
2023-03-12T22:40:32.167Z,101416.02
2023-03-12T22:43:01.582Z,101421.41
2023-03-12T22:45:30.219Z,101422.42
2023-03-12T22:47:58.777Z,101421.04
2023-03-12T22:50:32.627Z,101422.41
2023-03-12T22:53:03.123Z,101425.95
2023-03-12T22:55:47.149Z,101425.45
2023-03-12T22:58:21.273Z,101422.05
2023-03-12T23:01:01.399Z,101418.45
2023-03-12T23:03:33.910Z,101420.48
2023-03-12T23:06:05.971Z,101421.59
2023-03-12T23:08:38.125Z,101421.19
2023-03-12T23:11:10.933Z,101418.50
2023-03-12T23:13:44.687Z,101419.67
2023-03-12T23:16:19.843Z,101420.33
2023-03-12T23:18:52.402Z,101419.36
2023-03-12T23:28:56.052Z,101429.02
2023-03-12T23:31:28.545Z,101425.75
2023-03-12T23:34:02.728Z,101423.16
2023-03-12T23:36:30.818Z,101423.83
2023-03-12T23:39:03.189Z,101426.16
2023-03-12T23:41:34.344Z,101421.40
2023-03-12T23:44:05.203Z,101425.89
2023-03-12T23:46:32.539Z,101432.29
2023-03-12T23:49:01.712Z,101435.15
2023-03-12T23:51:34.192Z,101440.91
2023-03-12T23:54:06.269Z,101442.24
2023-03-12T23:56:36.609Z,101440.44
2023-03-12T23:59:06.653Z,101441.34
